createdAt,value
2023-07-09T00:00:53.907Z,21.50
2023-07-09T00:03:21.011Z,21.50
2023-07-09T00:05:49.920Z,21.50
2023-07-09T00:08:29.739Z,21.50
2023-07-09T00:10:57.945Z,21.50
2023-07-09T00:13:26.899Z,21.50
2023-07-09T00:15:58.138Z,21.50
2023-07-09T00:18:25.032Z,21.50
2023-07-09T00:20:51.906Z,21.40
2023-07-09T00:23:21.313Z,21.40
2023-07-09T00:25:49.648Z,21.40
2023-07-09T00:28:18.510Z,21.40
2023-07-09T00:30:46.791Z,21.30
2023-07-09T00:33:15.574Z,21.30
2023-07-09T00:35:47.585Z,21.20
2023-07-09T00:38:22.332Z,21.10
2023-07-09T00:41:05.053Z,21.10
2023-07-09T00:43:38.788Z,21.10
2023-07-09T00:46:21.032Z,21.10
2023-07-09T00:49:00.152Z,21.20
2023-07-09T00:51:29.156Z,21.20
2023-07-09T00:54:09.475Z,21.20
2023-07-09T00:56:41.347Z,21.20
2023-07-09T00:59:13.962Z,21.10
2023-07-09T01:01:42.005Z,21.10
2023-07-09T01:04:11.198Z,21.10
2023-07-09T01:06:44.880Z,21.10
2023-07-09T01:09:11.865Z,21.20
2023-07-09T01:11:41.356Z,21.20
2023-07-09T01:14:12.425Z,21.20
2023-07-09T01:16:45.566Z,21.20
2023-07-09T01:19:15.111Z,21.20
2023-07-09T01:21:42.065Z,21.20
2023-07-09T01:24:37.123Z,21.20
2023-07-09T01:27:06.664Z,21.10
2023-07-09T01:29:36.688Z,21.00
2023-07-09T01:32:04.369Z,21.00
2023-07-09T01:34:31.573Z,21.00
2023-07-09T01:36:58.501Z,20.90
2023-07-09T01:39:32.111Z,20.80
2023-07-09T01:41:59.025Z,20.60
2023-07-09T01:44:30.728Z,20.60
2023-07-09T01:46:57.550Z,20.50
2023-07-09T01:49:24.425Z,20.40
2023-07-09T01:51:51.629Z,20.30
2023-07-09T01:54:18.586Z,20.30
2023-07-09T01:56:45.461Z,20.30
2023-07-09T01:59:12.379Z,20.30
2023-07-09T02:01:39.563Z,20.20
2023-07-09T02:04:06.581Z,20.20
2023-07-09T02:06:33.524Z,20.20
2023-07-09T02:09:00.479Z,20.20
2023-07-09T02:11:27.343Z,20.20
2023-07-09T02:13:54.239Z,20.20
2023-07-09T02:16:21.192Z,20.20
2023-07-09T02:18:56.131Z,20.10
2023-07-09T02:21:22.924Z,20.00
2023-07-09T02:23:50.351Z,19.90
2023-07-09T02:26:17.349Z,19.80
2023-07-09T02:28:44.170Z,19.80
2023-07-09T02:31:11.202Z,19.80
2023-07-09T02:33:38.067Z,19.80
2023-07-09T02:36:05.252Z,19.70
2023-07-09T02:38:32.254Z,19.70
2023-07-09T02:40:59.138Z,19.70
2023-07-09T02:43:25.915Z,19.70
2023-07-09T02:45:52.773Z,19.70
2023-07-09T02:48:19.686Z,19.60
2023-07-09T02:50:46.564Z,19.60
2023-07-09T02:53:13.391Z,19.70
2023-07-09T02:55:40.195Z,19.60
2023-07-09T02:58:06.969Z,19.60
2023-07-09T03:00:33.854Z,19.50
2023-07-09T03:03:00.815Z,19.50
2023-07-09T03:05:27.739Z,19.50
2023-07-09T03:07:54.515Z,19.40
2023-07-09T03:10:21.514Z,19.40
2023-07-09T03:12:48.411Z,19.30
2023-07-09T03:15:15.282Z,19.30
2023-07-09T03:17:42.142Z,19.30
2023-07-09T03:20:09.928Z,19.30
2023-07-09T03:22:36.775Z,19.30
2023-07-09T03:25:03.893Z,19.30
2023-07-09T03:27:30.898Z,19.30
2023-07-09T03:29:57.692Z,19.40
2023-07-09T03:32:28.020Z,19.40
2023-07-09T03:34:54.957Z,19.30
2023-07-09T03:37:21.750Z,19.20
2023-07-09T03:39:48.680Z,19.10
2023-07-09T03:42:15.610Z,19.00
2023-07-09T03:44:42.428Z,18.90
2023-07-09T03:47:11.779Z,18.90
2023-07-09T03:49:39.372Z,19.00
2023-07-09T03:52:06.403Z,19.00
2023-07-09T03:54:33.176Z,18.90
2023-07-09T03:57:00.124Z,18.80
2023-07-09T03:59:26.958Z,18.80
2023-07-09T04:01:54.318Z,18.80
2023-07-09T04:04:21.810Z,18.90
2023-07-09T04:06:49.124Z,19.00
2023-07-09T04:09:15.920Z,19.00
2023-07-09T04:11:42.680Z,19.10
2023-07-09T04:14:09.632Z,19.10
2023-07-09T04:16:36.636Z,19.10
2023-07-09T04:19:03.770Z,19.10
2023-07-09T04:21:30.767Z,19.10
2023-07-09T04:23:57.636Z,19.10
2023-07-09T04:26:24.659Z,19.20
2023-07-09T04:28:51.517Z,19.20
2023-07-09T04:31:18.425Z,19.30
2023-07-09T04:33:46.432Z,19.40
2023-07-09T04:36:14.264Z,19.50
2023-07-09T04:38:41.357Z,19.60
2023-07-09T04:41:08.217Z,19.70
2023-07-09T04:43:35.041Z,19.70
2023-07-09T04:46:02.852Z,19.70
2023-07-09T04:48:29.966Z,19.80
2023-07-09T04:50:56.849Z,19.90
2023-07-09T04:53:25.257Z,20.00
2023-07-09T04:55:52.752Z,20.00
2023-07-09T04:58:20.129Z,20.20
2023-07-09T05:00:46.937Z,20.30
2023-07-09T05:03:14.137Z,20.40
2023-07-09T05:05:48.523Z,20.50
2023-07-09T05:08:15.872Z,20.60
2023-07-09T05:10:47.010Z,20.70
2023-07-09T05:13:14.202Z,20.90
2023-07-09T05:15:43.112Z,21.00
2023-07-09T05:18:10.125Z,21.30
2023-07-09T05:20:37.322Z,21.70
2023-07-09T05:23:04.366Z,22.00
2023-07-09T05:25:31.569Z,22.40
2023-07-09T05:27:58.563Z,22.80
2023-07-09T05:30:25.482Z,23.20
2023-07-09T05:32:54.790Z,23.70
2023-07-09T05:35:21.677Z,24.20
2023-07-09T05:37:48.651Z,24.70
2023-07-09T05:40:15.636Z,25.00
2023-07-09T05:42:42.878Z,25.20
2023-07-09T05:45:10.156Z,25.60
2023-07-09T05:47:36.981Z,25.90
2023-07-09T05:50:05.233Z,26.30
2023-07-09T05:52:32.367Z,26.80
2023-07-09T05:55:00.735Z,27.10
2023-07-09T05:57:27.851Z,27.40
2023-07-09T05:59:54.727Z,27.80
2023-07-09T06:02:22.557Z,28.10
2023-07-09T06:04:52.157Z,28.50
2023-07-09T06:07:19.708Z,28.80
2023-07-09T06:09:47.154Z,29.10
2023-07-09T06:12:14.063Z,29.30
2023-07-09T06:14:40.971Z,29.30
2023-07-09T06:17:08.585Z,29.50
2023-07-09T06:19:35.418Z,29.70
2023-07-09T06:22:02.453Z,29.80
2023-07-09T06:24:29.334Z,29.90
2023-07-09T06:26:56.142Z,30.00
2023-07-09T06:29:23.159Z,30.30
2023-07-09T06:31:49.992Z,30.40
2023-07-09T06:34:16.813Z,30.70
2023-07-09T06:36:44.682Z,31.00
2023-07-09T06:39:11.940Z,31.10
2023-07-09T06:41:40.249Z,31.40
2023-07-09T06:44:08.470Z,31.80
2023-07-09T06:46:36.034Z,31.60
2023-07-09T06:49:06.615Z,31.40
2023-07-09T06:51:33.983Z,31.50
2023-07-09T06:54:01.559Z,31.70
2023-07-09T06:56:28.416Z,31.70
2023-07-09T06:58:55.688Z,31.70
2023-07-09T07:01:23.311Z,31.90
2023-07-09T07:03:50.357Z,32.20
2023-07-09T07:06:17.676Z,32.50
2023-07-09T07:08:44.749Z,32.60
2023-07-09T07:11:11.618Z,32.60
2023-07-09T07:13:42.419Z,32.70
2023-07-09T07:16:11.831Z,32.80
2023-07-09T07:18:39.176Z,33.00
2023-07-09T07:21:07.009Z,33.30
2023-07-09T07:23:33.870Z,33.60
2023-07-09T07:26:00.957Z,33.90
2023-07-09T07:28:27.905Z,34.20
2023-07-09T07:31:03.584Z,34.40
2023-07-09T07:33:30.475Z,34.50
2023-07-09T07:36:13.326Z,34.50
2023-07-09T07:38:44.312Z,34.90
2023-07-09T07:41:12.046Z,35.30
2023-07-09T07:43:38.954Z,35.20
2023-07-09T07:46:07.314Z,35.30
2023-07-09T07:48:34.507Z,35.30
2023-07-09T07:51:05.669Z,35.30
2023-07-09T07:53:32.976Z,35.60
2023-07-09T07:56:00.817Z,35.90
2023-07-09T07:58:27.718Z,36.10
2023-07-09T08:00:58.667Z,36.10
2023-07-09T08:03:26.027Z,36.00
2023-07-09T08:05:53.674Z,36.10
2023-07-09T08:08:20.878Z,36.40
2023-07-09T08:10:50.456Z,36.70
2023-07-09T08:13:17.326Z,36.80
2023-07-09T08:15:46.242Z,37.20
2023-07-09T08:18:16.483Z,37.20
2023-07-09T08:20:46.727Z,36.50
2023-07-09T19:14:50.288Z,29.90
2023-07-09T19:17:21.795Z,29.90
2023-07-09T19:19:50.124Z,29.80
2023-07-09T19:22:17.317Z,29.70
2023-07-09T19:24:45.528Z,29.60
2023-07-09T19:27:13.174Z,29.60
2023-07-09T19:29:41.815Z,29.50
2023-07-09T19:32:27.735Z,29.40
2023-07-09T19:34:56.621Z,29.40
2023-07-09T19:37:27.131Z,29.30
2023-07-09T19:40:01.168Z,29.20
2023-07-09T19:42:28.082Z,29.10
2023-07-09T19:44:54.981Z,29.10
2023-07-09T19:47:24.859Z,29.00
2023-07-09T19:49:56.623Z,28.90
2023-07-09T19:52:23.753Z,28.90
2023-07-09T19:54:50.826Z,28.80
2023-07-09T19:57:17.820Z,28.70
2023-07-09T19:59:44.686Z,28.60
2023-07-09T20:02:26.261Z,28.60
2023-07-09T20:04:53.399Z,28.50
2023-07-09T20:07:20.262Z,28.40
2023-07-09T20:10:04.170Z,28.30
2023-07-09T20:12:31.664Z,28.10
2023-07-09T20:14:58.545Z,28.00
2023-07-09T20:17:25.409Z,27.90
2023-07-09T20:19:52.321Z,27.80
2023-07-09T20:22:24.948Z,27.70
2023-07-09T20:24:51.842Z,27.70
2023-07-09T20:27:21.889Z,27.60
2023-07-09T20:29:48.904Z,27.70
2023-07-09T20:32:19.012Z,27.70
2023-07-09T20:34:53.581Z,27.60
2023-07-09T20:37:20.798Z,27.60
2023-07-09T20:39:47.869Z,27.50
2023-07-09T20:42:18.228Z,27.40
2023-07-09T20:44:45.620Z,27.30
2023-07-09T20:47:16.717Z,27.20
2023-07-09T20:49:43.700Z,27.10
2023-07-09T20:52:12.835Z,27.00
2023-07-09T20:54:43.530Z,27.00
2023-07-09T20:57:19.124Z,27.00
2023-07-09T20:59:47.419Z,26.90
2023-07-09T21:02:23.281Z,26.90
2023-07-09T21:04:50.823Z,26.80
2023-07-09T21:07:17.918Z,26.80
2023-07-09T21:09:44.822Z,26.80
2023-07-09T21:12:13.189Z,26.80
2023-07-09T21:14:40.293Z,26.80
2023-07-09T21:17:11.015Z,26.70
2023-07-09T21:19:38.456Z,26.70
2023-07-09T21:22:46.059Z,26.70
2023-07-09T21:25:27.501Z,26.60
2023-07-09T21:27:55.109Z,26.60
2023-07-09T21:30:23.170Z,26.60
2023-07-09T21:32:53.256Z,26.50
2023-07-09T21:35:27.857Z,26.50
2023-07-09T21:37:57.348Z,26.40
2023-07-09T21:40:35.937Z,26.20
2023-07-09T21:43:04.472Z,26.10
2023-07-09T21:45:36.377Z,26.10
2023-07-09T21:48:07.742Z,26.00
2023-07-09T21:50:34.802Z,25.90
2023-07-09T21:53:01.677Z,25.90
2023-07-09T21:55:29.082Z,25.80
2023-07-09T21:57:57.328Z,25.80
2023-07-09T22:00:28.575Z,25.70
2023-07-09T22:02:56.008Z,25.70
2023-07-09T22:05:29.033Z,25.60
2023-07-09T22:07:57.580Z,25.50
2023-07-09T22:10:28.242Z,25.50
2023-07-09T22:12:57.802Z,25.40
2023-07-09T22:15:27.483Z,25.30
2023-07-09T22:17:55.130Z,25.30
2023-07-09T22:20:24.219Z,25.20
2023-07-09T22:22:51.056Z,25.20
2023-07-09T22:25:20.980Z,25.20
2023-07-09T22:27:48.439Z,25.10
2023-07-09T22:30:16.554Z,25.00
2023-07-09T22:32:48.187Z,24.90
2023-07-09T22:35:16.526Z,24.90
2023-07-09T22:37:44.629Z,24.80
2023-07-09T22:40:20.669Z,24.70
2023-07-09T22:42:49.679Z,24.70
2023-07-09T22:45:18.173Z,24.60
2023-07-09T22:47:45.629Z,24.60
2023-07-09T22:50:28.700Z,24.60
2023-07-09T22:52:55.689Z,24.60
2023-07-09T22:55:28.462Z,24.40
2023-07-09T22:57:57.149Z,24.40
2023-07-09T23:00:24.086Z,24.30
2023-07-09T23:02:51.276Z,24.30
2023-07-09T23:05:18.210Z,24.20
2023-07-09T23:07:45.047Z,24.20
2023-07-09T23:10:11.896Z,24.20
2023-07-09T23:12:41.171Z,24.20
2023-07-09T23:15:26.528Z,24.10
2023-07-09T23:17:57.505Z,24.10
2023-07-09T23:20:24.347Z,24.10
2023-07-09T23:22:52.183Z,24.10
2023-07-09T23:25:18.988Z,24.10
2023-07-09T23:27:46.412Z,24.10
2023-07-09T23:30:34.809Z,24.00
2023-07-09T23:33:25.186Z,24.00
2023-07-09T23:35:53.183Z,23.90
2023-07-09T23:38:20.020Z,23.90
2023-07-09T23:40:46.968Z,23.80
2023-07-09T23:43:16.528Z,23.80
2023-07-09T23:45:43.959Z,23.70
2023-07-09T23:48:37.379Z,23.60
2023-07-09T23:51:07.480Z,23.60
2023-07-09T23:53:35.183Z,23.50
2023-07-09T23:56:10.520Z,23.50
2023-07-09T23:58:39.485Z,23.50
